Time;durP1;ratioP1;P1;durP2;ratioP2;P2;SDS_P1;SDS_P2;PMS_P1;PMS_P2;Temp;Humidity;BMP_temperature;BMP_pressure;BME280_temperature;BME280_humidity;BME280_pressure;Samples;Min_cycle;Max_cycle;Signal;HPM_P1;HPM_P2
2023/08/04 00:00:13;;;;;;;17.35;15.75;;;;;;;23.99;76.58;92555.72;5009886;28;20212;-75
2023/08/04 00:02:39;;;;;;;18.20;16.50;;;;;;;23.86;77.53;92546.38;5008208;28;20205;-76
2023/08/04 00:05:05;;;;;;;16.67;15.18;;;;;;;23.84;76.34;92552.09;5001419;28;20186;-76
2023/08/04 00:07:33;;;;;;;17.42;15.82;;;;;;;23.86;76.38;92557.06;5009568;28;20196;-76
2023/08/04 00:09:58;;;;;;;16.42;14.95;;;;;;;23.91;76.01;92554.09;5009978;28;20194;-76
2023/08/04 00:12:24;;;;;;;18.15;16.45;;;;;;;23.85;76.56;92563.50;5009310;28;20213;-75
2023/08/04 00:14:50;;;;;;;17.38;15.93;;;;;;;23.84;76.36;92559.31;5009586;28;21235;-76
2023/08/04 00:17:15;;;;;;;16.70;15.13;;;;;;;23.77;76.67;92559.22;5024746;28;20277;-74
2023/08/04 00:19:41;;;;;;;17.90;16.30;;;;;;;23.71;77.46;92564.09;5008815;28;20215;-76
2023/08/04 00:22:07;;;;;;;18.15;16.58;;;;;;;23.74;77.25;92556.13;5009265;28;20941;-75
2023/08/04 00:24:32;;;;;;;17.88;16.33;;;;;;;23.73;77.14;92559.94;5009746;28;20257;-76
2023/08/04 00:26:59;;;;;;;20.27;16.20;;;;;;;23.63;77.03;92554.44;5008889;28;20227;-74
2023/08/04 00:29:25;;;;;;;18.00;16.50;;;;;;;23.61;78.28;92562.81;5009694;28;20202;-80
2023/08/04 00:31:50;;;;;;;17.65;16.05;;;;;;;23.55;78.53;92561.56;5003661;28;20222;-80
2023/08/04 00:34:15;;;;;;;18.00;16.00;;;;;;;23.54;77.84;92556.59;5009094;28;20221;-80
2023/08/04 00:36:41;;;;;;;18.45;16.85;;;;;;;23.54;78.26;92561.94;5024302;28;20245;-80
2023/08/04 00:39:07;;;;;;;18.00;16.30;;;;;;;23.59;77.95;92557.09;5009788;28;20232;-80
2023/08/04 00:41:32;;;;;;;17.80;16.23;;;;;;;23.45;77.93;92556.09;4985175;28;20223;-80
2023/08/04 00:43:57;;;;;;;17.25;15.48;;;;;;;23.54;77.70;92561.94;4989057;28;20210;-80
2023/08/04 00:46:23;;;;;;;18.92;17.13;;;;;;;23.51;77.85;92560.00;4984260;28;20291;-80
2023/08/04 00:48:49;;;;;;;17.20;15.70;;;;;;;23.55;76.55;92564.25;5005710;28;20209;-80
2023/08/04 00:51:14;;;;;;;17.00;15.57;;;;;;;23.49;77.01;92549.69;4986192;28;20219;-80
2023/08/04 00:53:40;;;;;;;17.33;15.82;;;;;;;23.48;76.99;92566.81;4990161;28;20194;-80
2023/08/04 00:56:06;;;;;;;17.52;16.10;;;;;;;23.43;77.42;92553.00;4989794;28;20253;-79
2023/08/04 00:58:35;;;;;;;17.58;15.98;;;;;;;23.54;77.51;92568.03;4989977;28;20191;-80
2023/08/04 01:01:00;;;;;;;17.40;15.80;;;;;;;23.57;76.39;92572.66;4988410;28;20276;-80
2023/08/04 01:03:26;;;;;;;18.08;16.38;;;;;;;23.55;77.15;92564.25;4989765;28;20187;-81
2023/08/04 01:06:21;;;;;;;17.90;16.23;;;;;;;23.51;78.64;92558.09;4989367;28;20349;-80
2023/08/04 01:09:15;;;;;;;17.52;16.02;;;;;;;23.37;79.65;92560.56;4989623;28;20256;-81
2023/08/04 01:11:51;;;;;;;18.42;16.85;;;;;;;23.44;78.95;92558.00;4997008;28;20223;-81
2023/08/04 01:14:18;;;;;;;17.63;15.93;;;;;;;23.54;77.26;92560.06;5011010;28;20190;-80
2023/08/04 01:16:44;;;;;;;18.08;16.55;;;;;;;23.36;78.09;92556.34;5012395;28;20260;-80
2023/08/04 01:19:09;;;;;;;18.25;16.55;;;;;;;23.23;79.43;92549.66;5012356;28;20211;-80
2023/08/04 01:21:42;;;;;;;17.90;16.15;;;;;;;23.26;79.44;92551.63;5007802;28;20217;-81
2023/08/04 01:24:08;;;;;;;18.00;16.15;;;;;;;23.28;78.58;92553.94;5004765;28;20198;-81
2023/08/04 01:26:37;;;;;;;18.17;16.42;;;;;;;23.29;78.40;92550.91;4994605;28;20243;-81
2023/08/04 01:29:05;;;;;;;18.00;16.23;;;;;;;23.25;78.42;92552.75;5005502;28;20266;-81
2023/08/04 01:31:30;;;;;;;18.00;16.40;;;;;;;23.31;78.38;92555.88;5000283;28;20249;-81
2023/08/04 01:33:56;;;;;;;17.80;16.20;;;;;;;23.32;77.90;92555.53;5008478;28;20269;-80
2023/08/04 01:36:22;;;;;;;17.63;16.02;;;;;;;23.17;78.31;92553.75;5000743;28;20229;-81
2023/08/04 01:38:47;;;;;;;17.23;15.63;;;;;;;23.05;78.48;92535.28;5003464;28;20177;-81
2023/08/04 01:41:13;;;;;;;19.90;16.58;;;;;;;23.23;78.50;92560.31;4994392;28;20230;-81
2023/08/04 01:43:38;;;;;;;17.27;15.88;;;;;;;23.13;78.78;92565.47;5002484;28;20178;-80
2023/08/04 01:46:03;;;;;;;17.88;16.33;;;;;;;22.94;80.76;92563.63;5009635;28;20245;-80
2023/08/04 01:48:29;;;;;;;17.90;16.10;;;;;;;22.93;80.81;92548.78;5003373;28;20213;-81
2023/08/04 01:50:54;;;;;;;17.77;16.17;;;;;;;22.92;80.28;92552.59;5011901;28;20235;-80
2023/08/04 01:53:19;;;;;;;18.20;16.38;;;;;;;23.03;80.18;92563.41;5012720;28;20198;-80
2023/08/04 01:55:47;;;;;;;16.90;15.50;;;;;;;23.04;79.89;92568.38;5011852;28;20233;-80
2023/08/04 01:58:13;;;;;;;17.77;16.27;;;;;;;22.75;80.44;92553.06;5012440;28;20186;-81
2023/08/04 02:00:38;;;;;;;17.13;15.63;;;;;;;22.81;80.51;92569.47;5012113;28;20214;-79
2023/08/04 02:03:03;;;;;;;18.27;16.67;;;;;;;22.86;80.44;92569.19;5002899;28;20206;-80
2023/08/04 02:05:29;;;;;;;17.23;15.82;;;;;;;22.83;80.68;92570.69;4993839;28;20257;-81
2023/08/04 02:07:54;;;;;;;18.13;16.42;;;;;;;22.71;81.22;92562.84;4991668;28;20203;-81
2023/08/04 02:10:19;;;;;;;17.73;15.98;;;;;;;22.71;81.85;92562.84;4989900;28;20239;-81
2023/08/04 02:12:45;;;;;;;17.23;15.73;;;;;;;22.67;81.46;92578.00;4987661;28;20214;-79
2023/08/04 02:15:10;;;;;;;16.95;15.55;;;;;;;22.56;81.24;92568.28;4991018;28;20262;-80
2023/08/04 02:17:36;;;;;;;17.77;16.25;;;;;;;22.67;80.88;92582.53;4991986;28;20183;-80
2023/08/04 02:20:02;;;;;;;16.98;15.57;;;;;;;22.68;80.77;92578.78;4982414;28;20210;-79
2023/08/04 02:22:27;;;;;;;16.90;15.45;;;;;;;22.71;80.80;92578.81;4984917;28;20211;-78
2023/08/04 02:24:52;;;;;;;18.60;16.90;;;;;;;22.75;80.33;92584.22;4987887;28;20196;-80
2023/08/04 02:27:18;;;;;;;17.00;15.40;;;;;;;22.67;80.50;92582.53;4991137;28;20255;-79
2023/08/04 02:29:43;;;;;;;17.02;15.43;;;;;;;22.69;80.77;92581.09;4988617;28;20203;-80
2023/08/04 02:32:10;;;;;;;16.85;15.27;;;;;;;22.69;81.14;92581.09;4992145;28;20226;-80
2023/08/04 02:34:36;;;;;;;18.48;16.38;;;;;;;22.56;82.28;92592.22;4991908;28;20205;-80
2023/08/04 02:37:01;;;;;;;17.77;15.50;;;;;;;22.61;81.13;92595.38;4991755;28;20222;-80
2023/08/04 02:39:26;;;;;;;19.10;16.45;;;;;;;22.56;80.50;92587.69;4991897;28;20248;-77
2023/08/04 02:41:52;;;;;;;17.98;16.27;;;;;;;22.64;80.17;92594.69;4983980;28;20311;-80
2023/08/04 02:44:17;;;;;;;18.40;16.63;;;;;;;22.55;81.23;92585.38;4986423;28;20186;-79
2023/08/04 02:46:44;;;;;;;16.52;15.07;;;;;;;22.61;81.88;92600.72;4980827;28;20221;-80
2023/08/04 02:49:10;;;;;;;18.05;16.27;;;;;;;22.55;82.12;92596.03;4991657;28;20220;-78
2023/08/04 02:51:35;;;;;;;17.88;16.00;;;;;;;22.56;81.86;92590.34;4996643;28;20219;-80
2023/08/04 02:54:01;;;;;;;17.50;15.77;;;;;;;22.53;82.34;92592.94;5006806;28;20191;-80
2023/08/04 02:56:26;;;;;;;17.42;15.82;;;;;;;22.52;82.50;92597.50;4999258;28;20240;-80
2023/08/04 02:58:51;;;;;;;17.88;16.17;;;;;;;22.40;83.88;92594.19;4990645;28;20190;-80
2023/08/04 03:01:17;;;;;;;18.35;16.65;;;;;;;22.35;83.92;92603.19;4983026;28;20230;-85
2023/08/04 03:03:42;;;;;;;18.88;17.05;;;;;;;22.38;83.81;92597.19;4986452;28;20205;-80
2023/08/04 03:06:08;;;;;;;18.27;16.73;;;;;;;22.40;83.74;92599.50;4980371;28;20224;-80
2023/08/04 03:08:33;;;;;;;18.42;16.52;;;;;;;22.32;83.85;92603.91;4991061;28;20207;-78
2023/08/04 03:10:59;;;;;;;17.75;16.10;;;;;;;22.36;84.03;92601.31;4991061;28;20250;-80
2023/08/04 03:13:25;;;;;;;18.30;16.70;;;;;;;22.36;84.67;92594.13;4991112;28;20205;-80
2023/08/04 03:15:58;;;;;;;18.73;17.02;;;;;;;22.27;84.61;92588.25;4979324;28;20261;-80
2023/08/04 03:18:24;;;;;;;17.27;15.65;;;;;;;22.27;85.02;92596.22;4990967;28;20285;-82
2023/08/04 03:20:52;;;;;;;18.02;16.35;;;;;;;22.16;85.65;92588.00;4997581;28;20237;-78
2023/08/04 03:23:17;;;;;;;18.50;16.95;;;;;;;22.30;85.36;92595.53;5013610;28;20191;-80
2023/08/04 03:25:42;;;;;;;17.90;16.20;;;;;;;22.36;85.07;92593.34;5010380;28;20304;-80
2023/08/04 03:28:08;;;;;;;17.45;15.90;;;;;;;22.29;84.96;92591.31;5000629;28;20181;-80
2023/08/04 03:30:34;;;;;;;18.70;16.83;;;;;;;22.31;85.12;92590.94;4999758;28;20241;-79
2023/08/04 03:32:59;;;;;;;17.83;16.23;;;;;;;22.32;85.01;92593.25;4996117;28;20248;-79
2023/08/04 03:35:24;;;;;;;19.10;16.55;;;;;;;22.36;84.62;92593.34;5001303;28;20248;-80
2023/08/04 03:37:50;;;;;;;17.70;16.20;;;;;;;22.32;85.47;92598.56;4996887;28;20190;-78
2023/08/04 03:40:15;;;;;;;18.08;16.48;;;;;;;22.46;84.38;92590.88;5009989;28;20210;-79
2023/08/04 03:42:41;;;;;;;18.25;16.42;;;;;;;22.48;84.04;92596.63;4997408;28;20213;-80
2023/08/04 03:45:07;;;;;;;26.73;17.33;;;;;;;22.54;83.82;92600.56;5009802;28;20189;-78
2023/08/04 03:47:34;;;;;;;18.90;16.77;;;;;;;22.55;83.38;92591.47;5010197;28;20274;-79
2023/08/04 03:50:04;;;;;;;18.02;16.23;;;;;;;22.65;82.80;92601.53;5009872;28;20186;-79
2023/08/04 03:52:30;;;;;;;18.58;16.80;;;;;;;22.76;82.86;92599.06;5009839;28;20218;-79
2023/08/04 03:54:56;;;;;;;16.42;14.50;;;;;;;22.73;83.74;92597.88;5010390;28;20185;-80
2023/08/04 03:57:22;;;;;;;17.38;15.77;;;;;;;22.84;84.24;92604.16;5009463;28;20231;-79
2023/08/04 03:59:48;;;;;;;17.73;16.13;;;;;;;22.92;83.70;92600.50;5010088;28;20209;-79
2023/08/04 04:02:13;;;;;;;17.98;16.27;;;;;;;23.00;82.63;92594.19;5010217;28;20230;-79
2023/08/04 04:04:39;;;;;;;19.08;17.13;;;;;;;23.08;83.00;92598.47;5010075;28;20235;-80
2023/08/04 04:07:04;;;;;;;18.83;17.08;;;;;;;23.15;82.43;92601.28;5009114;28;20288;-79
2023/08/04 04:09:30;;;;;;;18.05;16.35;;;;;;;23.15;82.48;92593.28;5002240;28;20197;-79
2023/08/04 04:11:55;;;;;;;20.02;16.23;;;;;;;23.29;82.74;92601.53;5005150;28;20222;-79
2023/08/04 04:14:20;;;;;;;17.55;15.80;;;;;;;23.48;81.28;92603.34;5010141;28;20216;-79
2023/08/04 04:16:46;;;;;;;18.02;16.20;;;;;;;23.59;81.42;92604.28;5009191;28;20241;-79
2023/08/04 04:19:11;;;;;;;18.55;16.88;;;;;;;23.74;80.43;92608.69;5010011;28;20196;-72
2023/08/04 04:21:37;;;;;;;18.40;16.80;;;;;;;23.81;80.90;92611.47;5009322;28;20234;-75
2023/08/04 04:24:03;;;;;;;16.95;15.25;;;;;;;23.91;80.20;92607.41;5009827;28;20194;-75
2023/08/04 04:26:28;;;;;;;18.90;16.95;;;;;;;24.09;79.79;92608.44;5009135;28;20261;-74
2023/08/04 04:28:53;;;;;;;18.15;16.45;;;;;;;24.21;78.98;92605.53;5006279;28;20199;-76
2023/08/04 04:31:19;;;;;;;18.60;16.45;;;;;;;24.33;78.57;92613.34;5009781;28;20233;-76
2023/08/04 04:33:44;;;;;;;18.10;16.30;;;;;;;24.46;78.10;92603.94;5009691;28;20237;-74
2023/08/04 04:36:10;;;;;;;18.52;16.58;;;;;;;24.59;77.11;92605.25;5009454;28;20234;-76
2023/08/04 04:38:36;;;;;;;17.45;15.65;;;;;;;24.71;77.00;92602.34;5009611;28;20207;-78
2023/08/04 04:41:02;;;;;;;19.75;17.85;;;;;;;24.93;76.01;92622.81;5009032;28;20250;-71
2023/08/04 04:43:29;;;;;;;20.08;17.95;;;;;;;25.07;73.57;92620.28;5009478;28;20198;-71
2023/08/04 04:45:55;;;;;;;20.52;17.23;;;;;;;25.05;72.82;92614.53;5009052;28;20222;-73
2023/08/04 04:48:23;;;;;;;21.63;17.92;;;;;;;24.45;74.82;92611.19;5022904;28;20595;-71
2023/08/04 04:50:52;;;;;;;19.35;17.48;;;;;;;24.59;75.32;92618.59;5009739;28;20227;-71
2023/08/04 04:53:18;;;;;;;22.33;18.23;;;;;;;24.44;75.96;92624.88;5012566;28;20207;-71
2023/08/04 04:55:43;;;;;;;23.70;19.75;;;;;;;24.48;76.58;92625.72;5021409;28;20266;-73
2023/08/04 04:58:09;;;;;;;21.25;17.60;;;;;;;24.81;74.87;92623.84;4993596;28;20223;-71
2023/08/04 05:00:35;;;;;;;20.98;18.65;;;;;;;24.73;76.10;92627.56;4983399;28;20657;-72
2023/08/04 05:03:10;;;;;;;19.80;17.88;;;;;;;24.96;75.09;92636.22;4993513;28;20184;-70
2023/08/04 05:05:36;;;;;;;19.63;17.55;;;;;;;25.17;74.52;92630.28;4989141;28;20279;-72
2023/08/04 05:08:02;;;;;;;27.38;17.45;;;;;;;24.79;75.33;92630.69;4991849;28;20188;-73
2023/08/04 05:10:27;;;;;;;19.80;17.88;;;;;;;25.01;75.77;92637.78;4998455;28;20231;-75
2023/08/04 05:12:53;;;;;;;20.45;18.45;;;;;;;25.33;73.52;92643.41;4992540;28;21037;-70
2023/08/04 05:15:19;;;;;;;22.60;19.70;;;;;;;25.04;75.12;92637.06;4988327;28;20196;-69
2023/08/04 05:17:44;;;;;;;23.58;18.45;;;;;;;24.75;76.61;92632.53;4992644;28;20194;-69
2023/08/04 05:20:11;;;;;;;24.52;20.88;;;;;;;25.26;73.77;92633.47;4990456;28;20487;-70
2023/08/04 05:22:37;;;;;;;24.65;19.23;;;;;;;25.59;72.51;92630.69;4991754;28;20246;-71
2023/08/04 05:25:04;;;;;;;22.52;20.33;;;;;;;25.74;72.15;92637.72;4990936;28;20267;-71
2023/08/04 05:27:29;;;;;;;22.42;20.38;;;;;;;25.81;71.70;92640.41;5011591;28;20225;-71
2023/08/04 05:29:54;;;;;;;25.80;20.38;;;;;;;25.90;70.45;92640.09;5004407;28;20199;-72
2023/08/04 05:32:20;;;;;;;23.08;20.83;;;;;;;25.87;71.25;92636.25;5012071;28;20302;-72
2023/08/04 05:34:45;;;;;;;22.10;19.90;;;;;;;25.95;70.90;92637.84;5012077;28;20194;-70
2023/08/04 05:37:10;;;;;;;23.38;20.70;;;;;;;26.06;69.80;92644.06;5011187;28;20302;-69
2023/08/04 05:39:36;;;;;;;23.90;21.45;;;;;;;25.88;70.16;92642.38;5011762;28;20223;-68
2023/08/04 05:42:01;;;;;;;21.95;19.60;;;;;;;25.58;71.32;92650.56;5011468;28;20251;-68
2023/08/04 05:44:28;;;;;;;21.45;19.25;;;;;;;25.64;71.38;92638.38;5011623;28;20267;-68
2023/08/04 05:46:53;;;;;;;22.23;20.23;;;;;;;26.27;68.80;92652.19;5008027;28;20242;-68
2023/08/04 05:49:19;;;;;;;22.83;20.52;;;;;;;26.21;69.83;92644.91;5011686;28;20259;-68
2023/08/04 05:51:45;;;;;;;22.65;20.25;;;;;;;28.43;61.48;92652.25;5011328;28;20220;-69
2023/08/04 05:54:11;;;;;;;20.67;18.60;;;;;;;28.92;58.59;92652.09;5005619;28;20188;-69
2023/08/04 05:56:36;;;;;;;19.95;17.48;;;;;;;30.60;54.25;92662.84;5008938;28;20235;-69
2023/08/04 05:59:02;;;;;;;20.20;16.42;;;;;;;33.07;46.01;92669.56;5011406;28;20206;-69
2023/08/04 06:01:27;;;;;;;18.90;16.88;;;;;;;35.96;37.59;92682.09;5009006;28;20256;-71
2023/08/04 06:03:53;;;;;;;16.85;15.32;;;;;;;36.66;35.86;92677.06;5009083;28;20198;-71
2023/08/04 06:06:20;;;;;;;15.77;14.35;;;;;;;38.65;32.60;92678.97;5010004;28;20216;-71
2023/08/04 06:08:45;;;;;;;17.30;15.63;;;;;;;36.06;36.67;92673.59;5009331;28;20203;-71
2023/08/04 06:11:12;;;;;;;23.50;16.08;;;;;;;35.89;37.97;92679.56;5010973;28;20235;-77
2023/08/04 06:13:37;;;;;;;17.75;15.13;;;;;;;36.11;37.63;92678.50;5010738;28;20196;-75
2023/08/04 06:16:03;;;;;;;14.80;13.30;;;;;;;38.49;32.68;92681.97;5009246;28;20242;-71
2023/08/04 06:18:28;;;;;;;15.50;14.00;;;;;;;36.79;34.44;92669.66;4997775;28;20270;-74
2023/08/04 06:20:54;;;;;;;14.95;13.50;;;;;;;36.78;34.80;92679.03;5010573;28;20231;-71
2023/08/04 06:23:19;;;;;;;15.35;14.05;;;;;;;37.52;34.62;92679.88;5010796;28;20187;-69
2023/08/04 06:25:44;;;;;;;14.40;13.05;;;;;;;37.55;33.67;92686.41;5009556;28;20230;-69
2023/08/04 06:28:10;;;;;;;15.05;13.23;;;;;;;36.19;35.22;92673.56;5002633;28;20214;-70
2023/08/04 06:30:36;;;;;;;14.95;13.63;;;;;;;37.52;33.61;92685.31;5007313;28;20830;-71
2023/08/04 06:33:02;;;;;;;14.15;12.85;;;;;;;36.50;35.21;92679.97;5011024;28;20227;-71
2023/08/04 06:35:27;;;;;;;16.25;14.65;;;;;;;36.61;34.96;92681.13;5005072;28;20262;-70
2023/08/04 06:37:52;;;;;;;16.15;14.07;;;;;;;33.33;41.17;92667.88;5009589;28;20231;-71
2023/08/04 06:40:18;;;;;;;15.88;14.35;;;;;;;30.59;49.24;92653.22;4993428;28;20219;-70
2023/08/04 06:42:43;;;;;;;16.02;14.30;;;;;;;30.98;49.33;92658.97;5006224;28;20714;-71
2023/08/04 06:45:09;;;;;;;15.90;14.20;;;;;;;31.33;47.35;92652.38;5004443;28;20204;-73
2023/08/04 06:47:34;;;;;;;15.52;14.02;;;;;;;30.58;49.18;92649.00;5006152;28;20202;-69
2023/08/04 06:50:00;;;;;;;16.30;14.80;;;;;;;30.26;49.23;92653.97;5008101;28;20226;-69
2023/08/04 06:52:25;;;;;;;16.48;14.13;;;;;;;29.96;50.12;92646.50;5001860;28;20195;-72
2023/08/04 06:54:51;;;;;;;14.73;13.52;;;;;;;30.20;49.83;92642.84;5012167;28;20210;-71
2023/08/04 06:57:16;;;;;;;15.18;13.88;;;;;;;30.08;50.12;92646.00;5006132;28;20233;-70
2023/08/04 06:59:42;;;;;;;14.85;13.43;;;;;;;30.09;49.04;92646.78;5009258;28;20233;-74
2023/08/04 07:02:07;;;;;;;15.38;14.07;;;;;;;29.79;50.02;92638.56;4998581;28;20230;-74
2023/08/04 07:04:33;;;;;;;14.55;13.25;;;;;;;29.69;50.90;92642.88;5010485;28;20181;-74
2023/08/04 07:06:58;;;;;;;16.25;14.75;;;;;;;29.74;50.21;92642.44;4995011;28;20218;-74
2023/08/04 07:09:25;;;;;;;16.02;13.93;;;;;;;29.70;50.64;92631.69;5005781;28;20194;-73
2023/08/04 07:11:51;;;;;;;13.95;12.73;;;;;;;29.64;50.01;92638.69;5008897;28;20222;-74
2023/08/04 07:14:16;;;;;;;13.85;12.75;;;;;;;29.64;49.64;92633.28;5010326;28;20274;-74
2023/08/04 07:16:46;;;;;;;14.98;13.68;;;;;;;29.50;49.61;92633.38;5009480;28;20229;-73
2023/08/04 07:19:11;;;;;;;14.38;13.10;;;;;;;29.20;49.53;92627.78;5010373;28;20182;-73
2023/08/04 07:21:37;;;;;;;15.68;14.27;;;;;;;29.50;50.42;92638.75;5009395;28;20292;-72
2023/08/04 07:24:02;;;;;;;13.65;12.43;;;;;;;29.43;50.16;92638.78;5009827;28;20811;-73
2023/08/04 07:26:28;;;;;;;14.15;12.95;;;;;;;29.79;49.41;92643.94;5008992;28;20218;-71
2023/08/04 07:28:53;;;;;;;14.10;12.95;;;;;;;30.06;49.29;92647.56;4994643;28;20180;-71
2023/08/04 07:31:19;;;;;;;13.52;12.45;;;;;;;30.02;48.46;92646.84;5006159;28;20244;-73
2023/08/04 07:33:44;;;;;;;13.88;12.60;;;;;;;29.79;48.09;92641.25;5006193;28;20233;-73
2023/08/04 07:36:09;;;;;;;13.75;12.60;;;;;;;29.65;49.52;92645.56;4998301;28;20224;-72
2023/08/04 07:38:35;;;;;;;14.00;12.80;;;;;;;29.91;48.11;92641.53;4998623;28;20186;-71
2023/08/04 07:41:00;;;;;;;14.93;13.73;;;;;;;29.81;48.48;92647.75;5009304;28;20314;-73
2023/08/04 07:43:26;;;;;;;15.32;13.82;;;;;;;29.80;49.07;92640.09;5010196;28;20183;-72
2023/08/04 07:45:53;;;;;;;15.23;13.73;;;;;;;29.95;48.82;92634.19;5001828;28;20251;-71
2023/08/04 07:48:19;;;;;;;14.27;13.10;;;;;;;30.20;48.67;92642.03;4991031;28;20202;-73
2023/08/04 07:50:46;;;;;;;15.30;13.98;;;;;;;30.34;48.21;92636.53;4990122;28;20245;-71
2023/08/04 07:53:11;;;;;;;13.52;12.52;;;;;;;30.41;46.86;92631.88;4983844;28;20187;-73
2023/08/04 07:55:39;;;;;;;15.63;14.23;;;;;;;30.36;48.00;92640.38;4980862;28;20239;-72
2023/08/04 07:58:08;;;;;;;14.25;12.93;;;;;;;30.50;47.27;92631.38;4982329;28;20201;-72
2023/08/04 08:00:33;;;;;;;14.57;13.23;;;;;;;30.39;47.38;92638.81;4973849;28;20261;-72
2023/08/04 08:02:59;;;;;;;14.90;13.57;;;;;;;30.56;48.30;92632.47;4990665;28;20204;-72
2023/08/04 08:05:24;;;;;;;15.70;14.30;;;;;;;30.56;47.66;92645.94;4989266;28;20255;-73
2023/08/04 08:07:50;;;;;;;15.75;14.15;;;;;;;30.36;49.09;92640.38;4988883;28;20211;-71
2023/08/04 08:10:16;;;;;;;14.52;13.13;;;;;;;30.72;49.08;92640.75;4985796;28;20188;-70
2023/08/04 08:12:42;;;;;;;15.25;14.02;;;;;;;31.05;47.86;92642.69;4986689;28;20223;-70
2023/08/04 08:15:07;;;;;;;15.57;14.27;;;;;;;31.11;46.98;92630.28;4977328;28;20192;-70
2023/08/04 08:17:33;;;;;;;15.63;14.32;;;;;;;31.22;46.29;92634.34;4977787;28;20188;-70
2023/08/04 08:19:58;;;;;;;15.88;14.45;;;;;;;31.34;46.24;92643.09;4997294;28;20226;-70
2023/08/04 08:22:23;;;;;;;15.68;14.15;;;;;;;31.57;46.42;92645.84;4979696;28;20315;-70
2023/08/04 08:24:56;;;;;;;15.23;13.93;;;;;;;31.75;45.73;92640.97;4989859;28;20190;-70
2023/08/04 08:27:23;;;;;;;15.60;14.32;;;;;;;31.50;46.00;92640.56;4995648;28;20278;-72
2023/08/04 08:29:53;;;;;;;14.57;13.25;;;;;;;31.30;45.84;92637.78;4986406;28;20180;-69
2023/08/04 08:32:18;;;;;;;15.48;14.10;;;;;;;31.59;46.42;92636.19;4984114;28;20255;-68
2023/08/04 08:34:44;;;;;;;15.98;14.57;;;;;;;31.65;46.32;92639.94;4991463;28;20193;-69
2023/08/04 08:37:09;;;;;;;14.90;13.68;;;;;;;31.80;46.26;92640.50;4988249;28;20238;-67
2023/08/04 08:39:34;;;;;;;15.45;14.20;;;;;;;31.89;44.84;92638.84;4993997;28;20212;-66
2023/08/04 08:42:00;;;;;;;15.40;13.90;;;;;;;31.35;46.11;92644.66;4988635;28;20227;-66
2023/08/04 08:44:26;;;;;;;15.88;14.43;;;;;;;31.93;44.79;92638.75;4981525;28;20193;-67
2023/08/04 08:46:52;;;;;;;14.65;13.45;;;;;;;31.73;45.61;92644.06;4976162;28;20304;-68
2023/08/04 08:49:23;;;;;;;14.98;13.75;;;;;;;31.91;44.38;92633.03;4986027;28;20220;-71
2023/08/04 08:51:52;;;;;;;15.07;13.77;;;;;;;31.82;43.70;92635.44;5001777;28;20229;-68
2023/08/04 08:54:19;;;;;;;15.50;14.25;;;;;;;31.51;45.91;92632.06;4986783;28;20176;-69
2023/08/04 08:56:45;;;;;;;14.95;13.65;;;;;;;31.78;44.83;92623.94;5010897;28;20228;-68
2023/08/04 08:59:10;;;;;;;14.57;13.38;;;;;;;32.00;43.60;92628.59;4990795;28;20203;-71
2023/08/04 09:01:36;;;;;;;14.98;13.60;;;;;;;32.08;45.19;92621.91;4990136;28;20220;-71
2023/08/04 09:04:02;;;;;;;15.77;14.18;;;;;;;32.36;44.16;92621.44;4992571;28;20286;-73
2023/08/04 09:06:27;;;;;;;15.35;14.05;;;;;;;32.30;43.86;92623.06;4986891;28;20228;-73
2023/08/04 09:08:54;;;;;;;15.43;14.02;;;;;;;32.02;44.10;92620.84;4985310;28;20224;-70
2023/08/04 09:11:19;;;;;;;13.68;12.57;;;;;;;32.18;44.66;92615.56;4999086;28;20306;-72
2023/08/04 09:13:45;;;;;;;16.00;14.55;;;;;;;32.11;44.15;92618.38;5003411;28;20238;-71
2023/08/04 09:16:15;;;;;;;13.98;12.88;;;;;;;32.23;43.91;92617.81;5013761;28;20211;-68
2023/08/04 09:18:41;;;;;;;14.88;13.50;;;;;;;32.41;43.77;92615.56;5010704;28;20188;-68
2023/08/04 09:21:07;;;;;;;15.07;13.57;;;;;;;32.52;43.01;92608.03;5011164;28;20227;-71
2023/08/04 09:23:35;;;;;;;15.30;14.00;;;;;;;32.68;42.55;92610.03;5013130;28;20184;-67
2023/08/04 09:26:01;;;;;;;14.23;13.13;;;;;;;32.37;42.60;92603.28;5011909;28;20227;-67
2023/08/04 09:28:27;;;;;;;14.65;13.45;;;;;;;32.29;41.50;92596.47;5007011;28;20183;-70
2023/08/04 09:31:06;;;;;;;15.15;13.85;;;;;;;32.26;41.78;92602.69;5008893;28;20226;-68
2023/08/04 09:33:33;;;;;;;15.43;14.18;;;;;;;32.33;43.14;92610.66;5005957;28;20227;-67
2023/08/04 09:36:10;;;;;;;15.38;13.82;;;;;;;32.46;43.45;92593.47;5010942;28;20219;-69
2023/08/04 09:38:37;;;;;;;14.65;13.35;;;;;;;32.68;42.57;92602.69;5004634;28;20182;-68
2023/08/04 09:41:13;;;;;;;16.63;14.35;;;;;;;32.94;41.49;92611.09;5000596;28;20251;-67
2023/08/04 09:43:47;;;;;;;16.27;13.63;;;;;;;32.65;40.94;92592.72;5006114;28;20209;-68
2023/08/04 09:46:13;;;;;;;14.88;13.60;;;;;;;32.48;42.40;92584.94;5000995;28;20220;-68
2023/08/04 09:48:38;;;;;;;15.55;14.13;;;;;;;32.37;41.82;92577.03;5003819;28;20187;-69
2023/08/04 09:51:15;;;;;;;14.38;13.05;;;;;;;32.61;40.87;92594.69;5004887;28;20316;-68
2023/08/04 09:53:41;;;;;;;14.90;13.65;;;;;;;32.78;40.99;92592.81;5005925;28;20180;-71
2023/08/04 09:56:08;;;;;;;14.27;12.90;;;;;;;32.98;40.97;92590.13;5000376;28;20236;-68
2023/08/04 09:58:34;;;;;;;14.60;13.13;;;;;;;32.98;40.15;92595.56;5004010;28;20203;-68
2023/08/04 10:01:01;;;;;;;14.27;12.45;;;;;;;33.00;39.01;92593.19;5002528;28;20223;-67
2023/08/04 10:03:27;;;;;;;13.75;12.63;;;;;;;32.75;39.82;92592.91;5009189;28;20203;-67
2023/08/04 10:05:55;;;;;;;14.27;12.88;;;;;;;32.82;39.21;92595.47;5009508;28;20238;-69
2023/08/04 10:08:20;;;;;;;13.68;12.40;;;;;;;32.85;38.76;92583.81;5001599;28;20176;-68
2023/08/04 10:10:46;;;;;;;14.27;12.98;;;;;;;32.74;39.57;92592.13;4998070;28;20226;-71
2023/08/04 10:13:12;;;;;;;15.20;13.88;;;;;;;32.79;38.72;92580.06;5003302;28;20178;-71
2023/08/04 10:15:38;;;;;;;16.63;15.23;;;;;;;32.66;39.61;92578.00;5008327;28;20250;-70
2023/08/04 10:18:04;;;;;;;14.82;12.85;;;;;;;32.69;39.35;92577.16;5008793;28;20196;-70
2023/08/04 10:20:34;;;;;;;14.45;13.15;;;;;;;32.79;38.83;92580.06;5007065;28;20232;-71
2023/08/04 10:22:59;;;;;;;15.00;13.80;;;;;;;32.86;39.86;92579.94;5011014;28;20187;-70
2023/08/04 10:25:26;;;;;;;14.00;12.80;;;;;;;33.06;38.03;92576.03;5010369;28;20230;-70
2023/08/04 10:27:52;;;;;;;14.88;13.27;;;;;;;33.33;37.56;92583.94;5004419;28;20179;-70
2023/08/04 10:30:18;;;;;;;13.80;12.70;;;;;;;33.39;37.30;92571.47;5010434;28;20195;-71
2023/08/04 10:32:44;;;;;;;14.57;13.38;;;;;;;33.39;37.38;92582.31;5009630;28;20250;-71
2023/08/04 10:35:27;;;;;;;13.85;12.65;;;;;;;33.48;37.61;92582.50;5006159;28;20184;-71
2023/08/04 10:37:58;;;;;;;14.57;13.10;;;;;;;33.46;36.20;92577.50;5010816;28;20255;-71
2023/08/04 10:40:29;;;;;;;13.85;12.55;;;;;;;33.37;36.51;92581.94;5009838;28;20261;-71
2023/08/04 10:43:08;;;;;;;14.05;12.68;;;;;;;33.42;37.54;92576.81;5009954;28;20180;-71
2023/08/04 10:46:04;;;;;;;14.38;13.02;;;;;;;33.54;36.13;92569.97;5000895;28;20270;-71
2023/08/04 10:48:34;;;;;;;14.95;13.52;;;;;;;33.46;36.31;92571.31;5006354;28;20191;-69
2023/08/04 10:51:00;;;;;;;14.30;12.93;;;;;;;33.29;36.44;92559.69;5007998;28;20227;-71
2023/08/04 10:53:26;;;;;;;14.43;13.10;;;;;;;33.49;36.94;92560.41;5001721;28;20206;-70
2023/08/04 10:55:57;;;;;;;15.73;12.80;;;;;;;33.62;36.37;92561.22;5008803;28;20251;-70
2023/08/04 10:58:24;;;;;;;15.40;14.10;;;;;;;33.49;37.04;92554.22;5007005;28;20194;-70
2023/08/04 11:00:49;;;;;;;15.00;13.60;;;;;;;33.74;36.26;92557.88;5009572;28;20328;-69
2023/08/04 11:03:19;;;;;;;14.55;13.27;;;;;;;33.81;36.29;92554.97;5010754;28;20258;-71
2023/08/04 11:05:45;;;;;;;14.00;12.68;;;;;;;33.83;35.87;92552.59;5009634;28;20242;-71
2023/08/04 11:08:10;;;;;;;15.15;13.85;;;;;;;33.95;36.31;92557.34;5010474;28;20882;-71
2023/08/04 11:10:36;;;;;;;15.70;14.18;;;;;;;34.04;35.38;92559.47;5002919;28;20227;-72
2023/08/04 11:13:01;;;;;;;15.70;14.40;;;;;;;33.64;36.31;92555.41;5010011;28;20211;-71